Time;durP1;ratioP1;P1;durP2;ratioP2;P2;SDS_P1;SDS_P2;PMS_P1;PMS_P2;Temp;Humidity;BMP_temperature;BMP_pressure;BME280_temperature;BME280_humidity;BME280_pressure;Samples;Min_cycle;Max_cycle;Signal;HPM_P1;HPM_P2
2021/01/28 00:01:18;;;;;;;15.65;6.13;;;;;;;;;;4979141;28;20038;-51
2021/01/28 00:03:43;;;;;;;16.10;6.13;;;;;;;;;;4979419;28;20265;-56
2021/01/28 00:06:09;;;;;;;14.32;4.78;;;;;;;;;;4978517;28;20049;-54
2021/01/28 00:08:35;;;;;;;14.63;5.57;;;;;;;;;;4980474;28;20102;-51
2021/01/28 00:11:01;;;;;;;14.55;5.25;;;;;;;;;;4978981;28;20092;-53
2021/01/28 00:13:27;;;;;;;14.60;5.72;;;;;;;;;;4979660;28;20038;-52
2021/01/28 00:15:53;;;;;;;15.00;6.35;;;;;;;;;;4980753;28;20042;-52
2021/01/28 00:18:19;;;;;;;19.65;7.60;;;;;;;;;;4979351;28;20483;-55
2021/01/28 00:20:47;;;;;;;24.90;7.63;;;;;;;;;;4980006;28;20042;-52
2021/01/28 00:23:13;;;;;;;19.73;9.00;;;;;;;;;;4974503;28;20046;-53
2021/01/28 00:25:39;;;;;;;18.33;7.90;;;;;;;;;;4976703;28;20051;-51
2021/01/28 00:28:07;;;;;;;20.45;8.35;;;;;;;;;;4980235;28;20057;-52
2021/01/28 00:30:35;;;;;;;19.48;8.35;;;;;;;;;;4979403;28;20052;-53
2021/01/28 00:33:01;;;;;;;19.05;7.72;;;;;;;;;;4980507;28;20477;-52
2021/01/28 00:35:46;;;;;;;25.52;8.30;;;;;;;;;;4978839;28;20041;-55
2021/01/28 00:38:22;;;;;;;18.90;7.18;;;;;;;;;;4980249;28;20065;-54
2021/01/28 00:40:48;;;;;;;21.77;7.95;;;;;;;;;;4979389;28;21060;-56
2021/01/28 00:43:14;;;;;;;20.85;9.10;;;;;;;;;;4981057;28;20042;-53
2021/01/28 00:45:40;;;;;;;18.60;8.32;;;;;;;;;;4983375;28;20056;-52
2021/01/28 00:48:06;;;;;;;18.23;7.00;;;;;;;;;;4984891;28;20038;-52
2021/01/28 00:50:33;;;;;;;19.52;7.03;;;;;;;;;;4984893;28;20092;-55
2021/01/28 00:52:59;;;;;;;17.55;6.78;;;;;;;;;;4984839;28;20041;-52
2021/01/28 00:55:25;;;;;;;19.48;7.53;;;;;;;;;;4984127;28;20137;-52
2021/01/28 00:57:51;;;;;;;19.55;6.35;;;;;;;;;;4984082;28;20073;-52
2021/01/28 01:00:20;;;;;;;15.98;7.53;;;;;;;;;;4983378;28;20050;-52
2021/01/28 01:02:46;;;;;;;15.93;6.10;;;;;;;;;;4984160;28;20388;-53
2021/01/28 01:05:13;;;;;;;15.10;6.97;;;;;;;;;;4984161;28;20057;-53
2021/01/28 01:07:39;;;;;;;19.70;8.77;;;;;;;;;;4982571;28;20104;-51
2021/01/28 01:10:07;;;;;;;17.85;6.07;;;;;;;;;;4984974;28;20038;-51
2021/01/28 01:12:33;;;;;;;14.00;6.00;;;;;;;;;;4981251;28;20042;-51
2021/01/28 01:14:59;;;;;;;18.17;6.95;;;;;;;;;;4982577;28;20147;-54
2021/01/28 01:17:25;;;;;;;18.52;6.57;;;;;;;;;;4982120;28;20145;-53
2021/01/28 01:19:51;;;;;;;24.80;8.38;;;;;;;;;;4983564;28;20045;-51
2021/01/28 01:22:17;;;;;;;19.25;7.90;;;;;;;;;;4984598;28;20061;-51
2021/01/28 01:24:43;;;;;;;21.20;8.40;;;;;;;;;;4984533;28;20058;-56
2021/01/28 01:27:11;;;;;;;18.70;6.65;;;;;;;;;;4984425;28;20403;-54
2021/01/28 01:29:37;;;;;;;22.48;8.73;;;;;;;;;;4982588;28;20053;-55
2021/01/28 01:32:03;;;;;;;20.90;7.22;;;;;;;;;;4989639;28;20042;-52
2021/01/28 01:34:29;;;;;;;21.15;8.20;;;;;;;;;;4979127;28;20037;-51
2021/01/28 01:36:55;;;;;;;18.83;8.10;;;;;;;;;;4981672;28;20042;-52
2021/01/28 01:39:21;;;;;;;20.25;7.68;;;;;;;;;;4982342;28;20035;-53
2021/01/28 01:41:47;;;;;;;20.52;8.23;;;;;;;;;;4983921;28;20054;-54
2021/01/28 01:44:13;;;;;;;19.90;7.68;;;;;;;;;;4983500;28;20141;-54
2021/01/28 01:46:39;;;;;;;18.73;6.65;;;;;;;;;;4982927;28;20078;-53
2021/01/28 01:49:06;;;;;;;15.20;5.85;;;;;;;;;;4982974;28;20049;-54
2021/01/28 01:51:37;;;;;;;19.95;8.23;;;;;;;;;;4984782;28;20066;-53
2021/01/28 01:54:11;;;;;;;18.92;7.43;;;;;;;;;;4982962;28;20038;-52
2021/01/28 01:56:42;;;;;;;21.50;8.15;;;;;;;;;;4981723;28;20706;-51
2021/01/28 01:59:10;;;;;;;19.80;6.93;;;;;;;;;;4983474;28;20046;-55
2021/01/28 02:01:38;;;;;;;18.67;6.70;;;;;;;;;;4982732;28;20046;-51
2021/01/28 02:04:06;;;;;;;14.45;5.88;;;;;;;;;;4984057;28;20129;-51
2021/01/28 02:06:50;;;;;;;18.63;7.57;;;;;;;;;;4984309;28;20053;-51
2021/01/28 02:09:16;;;;;;;20.08;6.28;;;;;;;;;;4982983;28;20407;-53
2021/01/28 02:11:43;;;;;;;18.52;6.95;;;;;;;;;;4980897;28;20043;-52
2021/01/28 02:14:10;;;;;;;26.20;7.32;;;;;;;;;;4982433;28;20512;-50
2021/01/28 02:16:45;;;;;;;24.42;8.93;;;;;;;;;;4982416;28;20070;-51
2021/01/28 02:19:26;;;;;;;20.20;7.82;;;;;;;;;;4981960;28;20038;-53
2021/01/28 02:21:52;;;;;;;21.92;7.88;;;;;;;;;;4981517;28;20049;-52
2021/01/28 02:24:18;;;;;;;20.65;7.28;;;;;;;;;;4981405;28;20050;-54
2021/01/28 02:26:45;;;;;;;15.55;6.60;;;;;;;;;;4981354;28;20073;-52
2021/01/28 02:29:11;;;;;;;9.40;3.25;;;;;;;;;;4982471;28;20439;-53
2021/01/28 02:31:38;;;;;;;14.40;5.45;;;;;;;;;;4980974;28;20046;-53
2021/01/28 02:34:05;;;;;;;12.95;5.22;;;;;;;;;;4982698;28;20062;-52
2021/01/28 02:36:33;;;;;;;21.40;9.35;;;;;;;;;;4979595;28;20069;-52
2021/01/28 02:38:59;;;;;;;20.45;7.85;;;;;;;;;;4982126;28;20070;-54
2021/01/28 02:41:25;;;;;;;19.20;7.78;;;;;;;;;;4980706;28;20114;-54
2021/01/28 02:43:51;;;;;;;23.92;9.27;;;;;;;;;;4981953;28;20081;-51
2021/01/28 02:46:17;;;;;;;17.55;7.07;;;;;;;;;;4982029;28;20054;-55
2021/01/28 02:48:43;;;;;;;28.65;10.38;;;;;;;;;;4982245;28;20088;-52
2021/01/28 02:51:10;;;;;;;16.13;5.10;;;;;;;;;;4980743;28;20042;-52
2021/01/28 02:53:40;;;;;;;12.27;4.43;;;;;;;;;;4979808;28;20034;-52
2021/01/28 02:56:06;;;;;;;19.45;6.90;;;;;;;;;;4982053;28;20120;-54
2021/01/28 02:58:32;;;;;;;17.75;6.78;;;;;;;;;;4978723;28;20127;-51
2021/01/28 03:00:58;;;;;;;16.45;5.18;;;;;;;;;;4983811;28;20034;-54
2021/01/28 03:03:24;;;;;;;8.63;3.03;;;;;;;;;;4972176;28;20601;-53
2021/01/28 03:05:51;;;;;;;13.65;5.25;;;;;;;;;;4980913;28;20054;-53
2021/01/28 03:08:18;;;;;;;17.75;6.40;;;;;;;;;;4995932;28;20047;-52
2021/01/28 03:10:44;;;;;;;13.50;5.93;;;;;;;;;;4979743;28;20991;-51
2021/01/28 03:13:10;;;;;;;20.45;7.32;;;;;;;;;;4980247;28;20089;-50
2021/01/28 03:15:36;;;;;;;16.92;6.18;;;;;;;;;;4980057;28;20129;-53
2021/01/28 03:18:02;;;;;;;7.50;3.03;;;;;;;;;;4980230;28;20045;-54
2021/01/28 03:20:28;;;;;;;10.65;3.10;;;;;;;;;;4983066;28;20042;-54
2021/01/28 03:22:57;;;;;;;18.98;4.45;;;;;;;;;;4981721;28;20038;-53
2021/01/28 03:25:25;;;;;;;6.40;2.60;;;;;;;;;;4981197;28;20069;-53
2021/01/28 03:27:51;;;;;;;8.23;3.80;;;;;;;;;;4982235;28;20042;-54
2021/01/28 03:30:21;;;;;;;19.80;7.65;;;;;;;;;;4981259;28;20661;-52
2021/01/28 03:32:47;;;;;;;17.08;6.15;;;;;;;;;;4981848;28;20068;-53
2021/01/28 03:35:14;;;;;;;12.52;3.67;;;;;;;;;;4981687;28;20050;-52
2021/01/28 03:37:40;;;;;;;15.95;5.07;;;;;;;;;;4979686;28;20038;-52
2021/01/28 03:40:06;;;;;;;12.65;5.10;;;;;;;;;;4981622;28;20069;-52
2021/01/28 03:42:32;;;;;;;9.07;2.80;;;;;;;;;;4979758;28;20062;-55
2021/01/28 03:44:58;;;;;;;16.83;6.50;;;;;;;;;;4981801;28;20142;-52
2021/01/28 03:47:24;;;;;;;18.50;6.53;;;;;;;;;;4981567;28;20050;-55
2021/01/28 03:49:50;;;;;;;11.77;4.10;;;;;;;;;;4982352;28;20049;-55
2021/01/28 03:52:16;;;;;;;15.98;5.18;;;;;;;;;;4982031;28;20391;-51
2021/01/28 03:54:42;;;;;;;20.83;5.65;;;;;;;;;;4980111;28;20099;-54
2021/01/28 03:57:08;;;;;;;10.43;3.95;;;;;;;;;;4981843;28;20092;-54
2021/01/28 03:59:34;;;;;;;8.23;3.05;;;;;;;;;;4981329;28;20495;-53
2021/01/28 04:02:00;;;;;;;18.48;7.00;;;;;;;;;;4980681;28;20065;-51
2021/01/28 04:04:26;;;;;;;13.15;4.85;;;;;;;;;;4979082;28;20081;-50
2021/01/28 04:06:51;;;;;;;17.65;6.45;;;;;;;;;;4980998;28;20650;-53
2021/01/28 04:09:17;;;;;;;8.75;4.72;;;;;;;;;;4982207;28;20601;-53
2021/01/28 04:11:43;;;;;;;11.93;4.22;;;;;;;;;;4980759;28;20073;-54
2021/01/28 04:14:09;;;;;;;21.77;6.32;;;;;;;;;;4984211;28;20046;-50
2021/01/28 04:16:35;;;;;;;11.93;3.63;;;;;;;;;;4979307;28;20153;-53
2021/01/28 04:19:01;;;;;;;11.02;4.70;;;;;;;;;;4985143;28;20156;-52
2021/01/28 04:21:27;;;;;;;19.15;6.47;;;;;;;;;;4984438;28;20700;-52
2021/01/28 04:23:52;;;;;;;12.30;4.15;;;;;;;;;;4984401;28;20109;-52
2021/01/28 04:26:18;;;;;;;18.63;7.07;;;;;;;;;;4982171;28;20046;-54
2021/01/28 04:28:44;;;;;;;10.98;5.10;;;;;;;;;;4985648;28;20133;-52
2021/01/28 04:31:10;;;;;;;19.40;5.07;;;;;;;;;;4986156;28;20559;-52
2021/01/28 04:33:36;;;;;;;12.93;4.60;;;;;;;;;;4984124;28;20065;-51
2021/01/28 04:36:02;;;;;;;20.58;7.03;;;;;;;;;;4983524;28;20039;-52
2021/01/28 04:38:28;;;;;;;28.45;7.88;;;;;;;;;;4981406;28;20399;-52
2021/01/28 04:41:00;;;;;;;12.20;3.65;;;;;;;;;;4982781;28;20052;-50
2021/01/28 04:43:31;;;;;;;16.00;5.70;;;;;;;;;;4983411;28;20156;-53
2021/01/28 04:46:01;;;;;;;11.32;4.43;;;;;;;;;;4984230;28;20078;-51
2021/01/28 04:48:28;;;;;;;18.77;6.50;;;;;;;;;;4981964;28;20092;-52
2021/01/28 04:50:55;;;;;;;26.50;6.30;;;;;;;;;;4985434;28;20106;-55
2021/01/28 04:53:47;;;;;;;12.68;3.95;;;;;;;;;;4983645;28;20046;-56
2021/01/28 04:56:15;;;;;;;15.93;4.82;;;;;;;;;;4981420;28;20108;-52
2021/01/28 04:58:41;;;;;;;28.90;9.38;;;;;;;;;;4981754;28;20045;-52
2021/01/28 05:01:07;;;;;;;30.73;7.97;;;;;;;;;;4983988;28;20403;-55
2021/01/28 05:03:37;;;;;;;28.63;8.43;;;;;;;;;;4984029;28;20043;-52
2021/01/28 05:06:04;;;;;;;28.25;7.90;;;;;;;;;;4982496;28;20117;-55
2021/01/28 05:08:30;;;;;;;11.52;4.63;;;;;;;;;;4983236;28;20149;-52
2021/01/28 05:10:57;;;;;;;21.52;7.00;;;;;;;;;;4983864;28;20153;-54
2021/01/28 05:13:25;;;;;;;35.47;8.15;;;;;;;;;;4982466;28;20046;-52
2021/01/28 05:15:51;;;;;;;12.63;3.38;;;;;;;;;;4983414;28;20514;-55
2021/01/28 05:18:16;;;;;;;29.92;8.95;;;;;;;;;;4983043;28;20038;-54
2021/01/28 05:20:43;;;;;;;29.00;7.90;;;;;;;;;;4975898;28;20295;-52
2021/01/28 05:23:22;;;;;;;22.42;7.10;;;;;;;;;;4983214;28;20777;-55
2021/01/28 05:25:48;;;;;;;20.45;6.43;;;;;;;;;;4982718;28;20491;-52
2021/01/28 05:28:25;;;;;;;22.05;7.30;;;;;;;;;;4983733;28;20521;-52
2021/01/28 05:30:51;;;;;;;28.95;8.20;;;;;;;;;;4983292;28;20039;-53
2021/01/28 05:33:35;;;;;;;24.10;5.97;;;;;;;;;;4984301;28;20053;-53
2021/01/28 05:36:03;;;;;;;24.35;7.38;;;;;;;;;;4982112;28;20394;-53
2021/01/28 05:38:32;;;;;;;17.92;6.93;;;;;;;;;;4985043;28;20551;-54
2021/01/28 05:40:59;;;;;;;17.25;4.70;;;;;;;;;;4997749;28;20543;-53
2021/01/28 05:43:40;;;;;;;26.27;6.82;;;;;;;;;;4982406;28;20053;-55
2021/01/28 05:46:26;;;;;;;24.00;7.75;;;;;;;;;;4983115;28;20140;-53
2021/01/28 05:49:12;;;;;;;32.60;7.32;;;;;;;;;;4974689;28;20034;-52
2021/01/28 05:51:42;;;;;;;30.35;8.50;;;;;;;;;;4964213;28;20483;-55
2021/01/28 05:54:14;;;;;;;27.10;8.57;;;;;;;;;;4964812;28;20050;-52
2021/01/28 05:56:52;;;;;;;33.30;10.55;;;;;;;;;;4962543;28;20042;-52
2021/01/28 05:59:21;;;;;;;33.15;9.25;;;;;;;;;;4963183;28;20049;-54
2021/01/28 06:01:53;;;;;;;28.50;9.98;;;;;;;;;;4965433;28;20042;-54
2021/01/28 06:04:33;;;;;;;30.52;9.45;;;;;;;;;;4963575;28;20042;-55
2021/01/28 06:06:59;;;;;;;27.45;7.82;;;;;;;;;;4960880;28;20130;-53
2021/01/28 06:09:24;;;;;;;22.52;7.43;;;;;;;;;;4962787;28;20662;-52
2021/01/28 06:12:03;;;;;;;27.60;8.85;;;;;;;;;;4964714;28;20046;-51
2021/01/28 06:14:29;;;;;;;23.27;5.30;;;;;;;;;;4962886;28;20057;-55
2021/01/28 06:16:57;;;;;;;26.77;10.63;;;;;;;;;;4963559;28;20034;-55
2021/01/28 06:19:32;;;;;;;12.45;4.07;;;;;;;;;;4962152;28;20053;-52
2021/01/28 06:22:00;;;;;;;17.98;5.18;;;;;;;;;;4972205;28;20053;-52
2021/01/28 06:24:26;;;;;;;17.98;7.20;;;;;;;;;;4964046;28;20094;-52
2021/01/28 06:27:11;;;;;;;17.00;6.70;;;;;;;;;;4965575;28;22114;-54
2021/01/28 06:29:46;;;;;;;27.75;9.00;;;;;;;;;;4964698;28;20077;-52
2021/01/28 06:32:18;;;;;;;14.48;4.82;;;;;;;;;;4963977;28;20559;-55
2021/01/28 06:34:50;;;;;;;26.50;7.75;;;;;;;;;;4974696;28;20108;-54
2021/01/28 06:37:31;;;;;;;14.50;5.80;;;;;;;;;;4982090;28;20126;-54
2021/01/28 06:39:57;;;;;;;29.52;9.07;;;;;;;;;;4980313;28;20067;-51
2021/01/28 06:42:32;;;;;;;31.98;8.85;;;;;;;;;;4979519;28;20164;-52
2021/01/28 06:45:04;;;;;;;20.85;6.45;;;;;;;;;;4982615;28;20054;-54
2021/01/28 06:47:36;;;;;;;20.75;7.45;;;;;;;;;;4982112;28;20105;-53
2021/01/28 06:50:02;;;;;;;29.52;10.00;;;;;;;;;;4982662;28;20046;-54
2021/01/28 06:52:43;;;;;;;27.98;7.95;;;;;;;;;;4983217;28;20053;-53
2021/01/28 06:55:28;;;;;;;21.90;7.65;;;;;;;;;;4982415;28;20035;-54
2021/01/28 06:57:59;;;;;;;9.05;3.22;;;;;;;;;;4982378;28;20046;-53
2021/01/28 07:00:28;;;;;;;34.50;8.48;;;;;;;;;;4981616;28;20042;-55
2021/01/28 07:03:14;;;;;;;32.55;9.63;;;;;;;;;;4983191;28;20884;-55
2021/01/28 07:05:50;;;;;;;15.55;4.10;;;;;;;;;;4980672;28;20046;-54
2021/01/28 07:08:24;;;;;;;35.83;8.40;;;;;;;;;;4983542;28;20124;-55
2021/01/28 07:10:50;;;;;;;22.98;7.72;;;;;;;;;;4997067;28;20050;-53
2021/01/28 07:13:21;;;;;;;32.28;9.77;;;;;;;;;;4982182;28;20109;-55
2021/01/28 07:15:50;;;;;;;28.20;8.57;;;;;;;;;;4984773;28;20053;-55
2021/01/28 07:18:22;;;;;;;19.33;4.90;;;;;;;;;;4987480;28;20792;-53
2021/01/28 07:21:17;;;;;;;38.13;10.60;;;;;;;;;;4982383;28;20073;-54
2021/01/28 07:23:58;;;;;;;30.90;9.15;;;;;;;;;;4976557;28;20450;-53
2021/01/28 07:26:42;;;;;;;29.33;9.43;;;;;;;;;;4978726;28;20054;-52
2021/01/28 07:29:42;;;;;;;36.97;9.10;;;;;;;;;;4981854;28;20045;-52
2021/01/28 07:32:09;;;;;;;12.65;5.65;;;;;;;;;;4977951;28;20768;-53
2021/01/28 07:34:35;;;;;;;25.38;8.77;;;;;;;;;;4981359;28;20053;-51
2021/01/28 07:37:34;;;;;;;9.93;2.55;;;;;;;;;;4981946;28;20137;-54
2021/01/28 07:39:59;;;;;;;44.42;11.10;;;;;;;;;;4969888;28;20133;-51
2021/01/28 07:42:27;;;;;;;24.58;7.25;;;;;;;;;;4982146;28;20049;-52
2021/01/28 07:44:54;;;;;;;31.08;9.07;;;;;;;;;;4995156;28;20488;-51
2021/01/28 07:47:32;;;;;;;24.95;5.55;;;;;;;;;;4980530;28;20050;-51
2021/01/28 07:50:16;;;;;;;14.30;3.75;;;;;;;;;;4982521;28;20487;-52
2021/01/28 07:52:45;;;;;;;39.60;9.95;;;;;;;;;;4983214;28;20042;-51
2021/01/28 07:55:29;;;;;;;32.30;9.15;;;;;;;;;;4984539;28;20033;-53
2021/01/28 07:57:56;;;;;;;6.00;2.58;;;;;;;;;;4991029;28;20101;-53
2021/01/28 08:00:24;;;;;;;22.95;8.20;;;;;;;;;;4985680;28;20778;-54
2021/01/28 08:03:01;;;;;;;24.90;6.20;;;;;;;;;;4984013;28;20109;-53
2021/01/28 08:05:27;;;;;;;48.42;11.32;;;;;;;;;;4983783;28;20046;-53
2021/01/28 08:08:05;;;;;;;16.70;5.97;;;;;;;;;;4985699;28;20038;-52
2021/01/28 08:10:30;;;;;;;20.40;8.02;;;;;;;;;;4984950;28;20043;-51
2021/01/28 08:13:02;;;;;;;41.42;11.40;;;;;;;;;;4985720;28;20053;-50
2021/01/28 08:15:35;;;;;;;30.23;9.02;;;;;;;;;;4984447;28;20042;-51
2021/01/28 08:18:03;;;;;;;28.88;9.40;;;;;;;;;;4985525;28;20173;-51
2021/01/28 08:20:31;;;;;;;31.88;8.13;;;;;;;;;;4983375;28;20857;-51
2021/01/28 08:23:05;;;;;;;34.45;9.93;;;;;;;;;;4984928;28;20974;-52
2021/01/28 08:25:30;;;;;;;;;;;;;;;;;;4984378;28;20149;-55
2021/01/28 08:28:05;;;;;;;15.32;6.72;;;;;;;;;;4986163;28;20376;-53
2021/01/28 08:30:31;;;;;;;40.58;12.23;;;;;;;;;;4984953;28;20035;-51
2021/01/28 08:32:59;;;;;;;39.83;11.80;;;;;;;;;;4986362;28;20407;-50
2021/01/28 08:35:28;;;;;;;46.50;13.77;;;;;;;;;;4984749;28;20046;-53
2021/01/28 08:38:04;;;;;;;46.00;13.57;;;;;;;;;;4984678;28;20118;-55
2021/01/28 08:40:30;;;;;;;23.67;7.72;;;;;;;;;;4984523;28;20046;-54
2021/01/28 08:43:16;;;;;;;25.65;6.50;;;;;;;;;;4985546;28;20114;-51
2021/01/28 08:45:43;;;;;;;14.25;6.28;;;;;;;;;;4985080;28;20046;-54
2021/01/28 08:48:10;;;;;;;34.72;11.90;;;;;;;;;;4986347;28;20038;-51
2021/01/28 08:50:37;;;;;;;33.03;12.25;;;;;;;;;;4985072;28;20655;-51
2021/01/28 08:53:05;;;;;;;34.40;10.45;;;;;;;;;;4985778;28;20096;-53
2021/01/28 08:55:34;;;;;;;36.88;12.32;;;;;;;;;;4982222;28;20241;-55
2021/01/28 08:58:12;;;;;;;24.20;10.80;;;;;;;;;;4984572;28;20048;-50
2021/01/28 09:00:42;;;;;;;30.75;9.90;;;;;;;;;;4984485;28;20047;-51
2021/01/28 09:03:09;;;;;;;29.63;10.70;;;;;;;;;;4985207;28;20108;-52
2021/01/28 09:05:34;;;;;;;45.53;13.15;;;;;;;;;;4982510;28;21156;-54
2021/01/28 09:08:01;;;;;;;23.65;9.98;;;;;;;;;;4984660;28;20041;-54
2021/01/28 09:10:29;;;;;;;40.95;13.00;;;;;;;;;;4984620;28;20041;-54
2021/01/28 09:13:10;;;;;;;38.90;11.98;;;;;;;;;;4983299;28;20311;-55
2021/01/28 09:15:37;;;;;;;23.50;9.00;;;;;;;;;;4982644;28;20046;-53
2021/01/28 09:18:06;;;;;;;29.60;11.30;;;;;;;;;;4985933;28;20046;-55
2021/01/28 09:20:33;;;;;;;30.52;8.98;;;;;;;;;;4985297;28;20042;-51
2021/01/28 09:23:13;;;;;;;32.40;12.25;;;;;;;;;;4984691;28;20044;-55
2021/01/28 09:25:40;;;;;;;39.03;11.80;;;;;;;;;;4984579;28;20498;-51
2021/01/28 09:28:08;;;;;;;35.58;12.10;;;;;;;;;;4985863;28;20161;-51
2021/01/28 09:30:35;;;;;;;26.38;9.05;;;;;;;;;;4984033;28;20511;-54
2021/01/28 09:33:21;;;;;;;40.05;12.25;;;;;;;;;;4985822;28;20089;-51
2021/01/28 09:36:05;;;;;;;35.92;9.65;;;;;;;;;;4982743;28;20399;-54
2021/01/28 09:38:31;;;;;;;38.65;11.32;;;;;;;;;;4983470;28;20508;-54
2021/01/28 09:41:09;;;;;;;34.95;10.48;;;;;;;;;;4984532;28;20450;-53
2021/01/28 09:43:35;;;;;;;40.25;11.90;;;;;;;;;;4985406;28;20042;-55
2021/01/28 09:46:01;;;;;;;39.17;14.55;;;;;;;;;;4984312;28;20053;-53
2021/01/28 09:48:27;;;;;;;31.58;11.18;;;;;;;;;;4983265;28;20041;-52
2021/01/28 09:50:54;;;;;;;13.75;4.90;;;;;;;;;;4984327;28;20034;-53
2021/01/28 09:53:19;;;;;;;27.58;10.45;;;;;;;;;;4984001;28;20042;-53
2021/01/28 09:55:45;;;;;;;27.88;8.60;;;;;;;;;;4983877;28;20514;-53
2021/01/28 09:58:11;;;;;;;16.60;5.28;;;;;;;;;;4985226;28;20033;-52
2021/01/28 10:00:37;;;;;;;11.32;4.95;;;;;;;;;;4984042;28;20042;-54
2021/01/28 10:03:05;;;;;;;18.75;7.30;;;;;;;;;;4984759;28;20057;-53
2021/01/28 10:05:32;;;;;;;24.55;7.68;;;;;;;;;;4976735;28;20719;-55
2021/01/28 10:07:58;;;;;;;19.50;7.40;;;;;;;;;;4984822;28;20042;-54
2021/01/28 10:10:26;;;;;;;28.40;7.45;;;;;;;;;;4982932;28;20746;-52
2021/01/28 10:12:53;;;;;;;29.73;8.55;;;;;;;;;;4984944;28;21021;-52
2021/01/28 10:15:19;;;;;;;23.33;6.82;;;;;;;;;;4983454;28;20030;-52
2021/01/28 10:17:45;;;;;;;11.32;4.82;;;;;;;;;;4987688;28;20056;-53
2021/01/28 10:20:12;;;;;;;24.90;9.18;;;;;;;;;;4986303;28;20037;-51
2021/01/28 10:22:38;;;;;;;26.10;9.05;;;;;;;;;;4985402;28;20799;-52
2021/01/28 10:25:05;;;;;;;31.48;11.07;;;;;;;;;;4985070;28;20058;-51
2021/01/28 10:27:31;;;;;;;23.65;6.57;;;;;;;;;;4984594;28;20115;-52
2021/01/28 10:29:57;;;;;;;21.00;8.32;;;;;;;;;;4984890;28;20054;-51
2021/01/28 10:32:23;;;;;;;25.15;8.18;;;;;;;;;;4983262;28;20057;-55
2021/01/28 10:34:49;;;;;;;25.70;9.27;;;;;;;;;;4985212;28;20050;-53
2021/01/28 10:37:17;;;;;;;18.92;6.72;;;;;;;;;;4986204;28;20078;-52
2021/01/28 10:39:43;;;;;;;16.23;5.13;;;;;;;;;;4986045;28;20185;-54
2021/01/28 10:42:13;;;;;;;21.70;7.55;;;;;;;;;;4984715;28;20157;-54
2021/01/28 10:44:39;;;;;;;34.33;11.95;;;;;;;;;;4983261;28;20042;-53
2021/01/28 10:47:05;;;;;;;32.47;10.07;;;;;;;;;;4984875;28;20129;-51
2021/01/28 10:49:31;;;;;;;18.00;6.95;;;;;;;;;;4982945;28;20047;-53
2021/01/28 10:51:57;;;;;;;27.75;9.20;;;;;;;;;;4982871;28;20030;-53
2021/01/28 10:54:23;;;;;;;18.48;6.40;;;;;;;;;;4983379;28;20077;-54
2021/01/28 10:56:48;;;;;;;27.17;8.25;;;;;;;;;;4981378;28;20058;-52
2021/01/28 10:59:14;;;;;;;28.02;7.93;;;;;;;;;;4980691;28;20500;-53
2021/01/28 11:01:40;;;;;;;17.70;7.25;;;;;;;;;;4979908;28;20043;-52
2021/01/28 11:04:06;;;;;;;12.27;5.20;;;;;;;;;;4982083;28;20038;-52
2021/01/28 11:06:32;;;;;;;11.50;4.95;;;;;;;;;;4982726;28;20088;-52
2021/01/28 11:08:58;;;;;;;25.85;10.63;;;;;;;;;;4984049;28;20108;-52
2021/01/28 11:11:24;;;;;;;22.38;6.03;;;;;;;;;;4983116;28;20034;-53
2021/01/28 11:13:52;;;;;;;33.08;12.73;;;;;;;;;;4983307;28;20038;-52
2021/01/28 11:16:23;;;;;;;25.25;9.55;;;;;;;;;;4981083;28;20050;-53
2021/01/28 11:18:50;;;;;;;26.23;9.70;;;;;;;;;;4982658;28;20120;-53
2021/01/28 11:21:16;;;;;;;32.65;11.25;;;;;;;;;;4983023;28;20046;-53
2021/01/28 11:23:42;;;;;;;20.02;7.65;;;;;;;;;;4982774;28;20054;-53
2021/01/28 11:26:08;;;;;;;18.52;6.47;;;;;;;;;;4981876;28;20121;-55
2021/01/28 11:28:34;;;;;;;26.70;9.95;;;;;;;;;;4981082;28;20046;-52
2021/01/28 11:31:00;;;;;;;24.92;10.02;;;;;;;;;;4982875;28;20038;-53
2021/01/28 11:33:26;;;;;;;26.65;8.35;;;;;;;;;;4980727;28;20073;-53
2021/01/28 11:35:51;;;;;;;25.85;10.23;;;;;;;;;;4980735;28;20044;-54
2021/01/28 11:38:17;;;;;;;27.75;10.38;;;;;;;;;;4981767;28;20136;-54
2021/01/28 11:40:43;;;;;;;31.92;12.18;;;;;;;;;;4981102;28;20038;-55
2021/01/28 11:43:09;;;;;;;18.83;6.40;;;;;;;;;;4981994;28;20591;-53
2021/01/28 11:45:35;;;;;;;32.58;8.98;;;;;;;;;;4979911;28;20046;-53
2021/01/28 11:48:02;;;;;;;29.35;9.50;;;;;;;;;;4982261;28;20041;-55
2021/01/28 11:50:28;;;;;;;34.50;10.50;;;;;;;;;;4981028;28;20522;-55
2021/01/28 11:52:54;;;;;;;37.70;12.60;;;;;;;;;;4982697;28;20042;-54
2021/01/28 11:55:22;;;;;;;20.00;7.85;;;;;;;;;;4981037;28;20423;-55
2021/01/28 11:57:48;;;;;;;36.05;12.40;;;;;;;;;;4983627;28;20073;-54
2021/01/28 12:00:14;;;;;;;32.58;11.30;;;;;;;;;;4982588;28;20136;-53
2021/01/28 12:02:40;;;;;;;20.92;7.18;;;;;;;;;;4982285;28;20069;-53
2021/01/28 12:05:07;;;;;;;27.75;9.52;;;;;;;;;;4980577;28;20365;-53
2021/01/28 12:07:34;;;;;;;39.92;13.18;;;;;;;;;;4980419;28;20061;-53
2021/01/28 12:09:59;;;;;;;34.05;12.80;;;;;;;;;;4978904;28;20826;-53
2021/01/28 12:12:25;;;;;;;32.33;10.90;;;;;;;;;;4983823;28;20101;-54
2021/01/28 12:14:51;;;;;;;25.67;8.23;;;;;;;;;;4980925;28;20034;-53
2021/01/28 12:17:18;;;;;;;20.38;6.13;;;;;;;;;;4981631;28;20050;-54
2021/01/28 12:19:44;;;;;;;30.90;9.32;;;;;;;;;;4980410;28;20090;-55
2021/01/28 12:22:09;;;;;;;33.53;13.20;;;;;;;;;;4980263;28;20532;-53
2021/01/28 12:24:35;;;;;;;29.15;9.60;;;;;;;;;;4978582;28;20061;-51
2021/01/28 12:27:02;;;;;;;30.50;8.48;;;;;;;;;;4981053;28;20082;-52
2021/01/28 12:29:28;;;;;;;34.90;11.65;;;;;;;;;;4980926;28;20046;-51
2021/01/28 12:31:54;;;;;;;32.78;11.95;;;;;;;;;;4982080;28;20188;-54
2021/01/28 12:34:20;;;;;;;19.23;7.57;;;;;;;;;;4980049;28;20125;-54
2021/01/28 12:36:46;;;;;;;21.45;7.35;;;;;;;;;;4982291;28;20121;-54
2021/01/28 12:39:12;;;;;;;22.60;10.02;;;;;;;;;;4982757;28;20038;-54
2021/01/28 12:41:37;;;;;;;26.48;11.75;;;;;;;;;;4984049;28;20038;-54
2021/01/28 12:44:03;;;;;;;27.92;9.73;;;;;;;;;;4988636;28;20045;-53
2021/01/28 12:46:29;;;;;;;29.10;9.40;;;;;;;;;;4986347;28;20073;-54
2021/01/28 12:48:55;;;;;;;26.48;11.07;;;;;;;;;;4986457;28;20064;-54
2021/01/28 12:51:21;;;;;;;23.88;9.30;;;;;;;;;;4984045;28;20042;-55
2021/01/28 12:53:47;;;;;;;26.95;10.20;;;;;;;;;;4985610;28;20164;-55
2021/01/28 12:56:13;;;;;;;32.22;10.95;;;;;;;;;;4984139;28;20456;-56
2021/01/28 12:58:39;;;;;;;28.55;10.32;;;;;;;;;;4983919;28;20100;-54
2021/01/28 13:01:05;;;;;;;25.42;8.93;;;;;;;;;;4986312;28;20766;-54
2021/01/28 13:03:31;;;;;;;30.70;9.88;;;;;;;;;;4984375;28;20451;-51
2021/01/28 13:05:57;;;;;;;31.73;10.07;;;;;;;;;;4975295;28;20054;-52
2021/01/28 13:08:24;;;;;;;23.45;8.52;;;;;;;;;;4985827;28;20044;-53
2021/01/28 13:10:50;;;;;;;23.05;8.75;;;;;;;;;;4986175;28;20125;-53
2021/01/28 13:13:16;;;;;;;25.08;8.57;;;;;;;;;;4986146;28;20544;-53
2021/01/28 13:15:42;;;;;;;21.33;8.45;;;;;;;;;;4985415;28;20030;-52
2021/01/28 13:18:08;;;;;;;27.98;9.38;;;;;;;;;;4983746;28;20520;-54
2021/01/28 13:20:34;;;;;;;19.73;7.32;;;;;;;;;;4979629;28;20050;-54
2021/01/28 13:23:00;;;;;;;24.52;9.88;;;;;;;;;;4983718;28;20140;-55
2021/01/28 13:25:26;;;;;;;24.98;7.43;;;;;;;;;;4985315;28;20077;-54
2021/01/28 13:27:53;;;;;;;21.85;9.43;;;;;;;;;;4989996;28;20038;-52
2021/01/28 13:30:19;;;;;;;26.73;8.68;;;;;;;;;;4986237;28;20053;-52
2021/01/28 13:32:45;;;;;;;26.48;9.50;;;;;;;;;;4987079;28;20146;-55
2021/01/28 13:35:13;;;;;;;25.40;9.63;;;;;;;;;;4989840;28;20152;-51
2021/01/28 13:37:39;;;;;;;25.92;10.30;;;;;;;;;;4984335;28;20037;-52
2021/01/28 13:40:05;;;;;;;18.27;7.90;;;;;;;;;;4978029;28;20485;-54
2021/01/28 13:42:31;;;;;;;24.33;10.27;;;;;;;;;;4982740;28;20124;-52
2021/01/28 13:44:57;;;;;;;28.05;8.48;;;;;;;;;;4982298;28;20042;-51
2021/01/28 13:47:23;;;;;;;24.83;8.50;;;;;;;;;;4981321;28;20042;-52
2021/01/28 13:49:49;;;;;;;22.60;7.20;;;;;;;;;;4982590;28;20064;-52
2021/01/28 13:52:15;;;;;;;27.27;8.57;;;;;;;;;;4982275;28;20483;-53
2021/01/28 13:54:41;;;;;;;17.13;6.10;;;;;;;;;;4981432;28;20517;-55
2021/01/28 13:57:06;;;;;;;19.30;6.97;;;;;;;;;;4981978;28;20038;-52
2021/01/28 13:59:34;;;;;;;20.73;6.63;;;;;;;;;;4981805;28;20832;-52
2021/01/28 14:02:00;;;;;;;19.08;8.25;;;;;;;;;;4983536;28;20046;-52
2021/01/28 14:04:25;;;;;;;39.00;12.93;;;;;;;;;;4981367;28;20516;-53
2021/01/28 14:06:51;;;;;;;26.13;9.98;;;;;;;;;;4981043;28;20073;-51
2021/01/28 14:09:17;;;;;;;19.42;7.32;;;;;;;;;;4984135;28;20056;-51
2021/01/28 14:11:43;;;;;;;19.95;7.00;;;;;;;;;;4982353;28;20043;-53
2021/01/28 14:14:09;;;;;;;20.10;7.45;;;;;;;;;;4982186;28;20103;-51
2021/01/28 14:16:34;;;;;;;19.73;7.53;;;;;;;;;;4980576;28;20084;-52
2021/01/28 14:19:00;;;;;;;20.60;7.97;;;;;;;;;;4981092;28;20053;-54
2021/01/28 14:21:26;;;;;;;16.90;6.15;;;;;;;;;;4981933;28;20092;-52
2021/01/28 14:23:52;;;;;;;19.75;7.00;;;;;;;;;;4983149;28;20204;-51
2021/01/28 14:26:18;;;;;;;26.45;7.60;;;;;;;;;;4980888;28;20768;-51
2021/01/28 14:28:44;;;;;;;27.40;9.02;;;;;;;;;;4983361;28;20038;-52
2021/01/28 14:31:10;;;;;;;23.67;7.65;;;;;;;;;;4983756;28;20035;-51
2021/01/28 14:33:36;;;;;;;17.95;7.97;;;;;;;;;;4982315;28;20038;-52
2021/01/28 14:36:01;;;;;;;18.65;7.15;;;;;;;;;;4982579;28;20100;-52